sensor_id;sensor_type;location;lat;lon;timestamp;P1;durP1;ratioP1;P2;durP2;ratioP2
26822;SDS011;14852;51.910;8.878;2022-07-01T00:02:18;2.67;;;2.30;;
26822;SDS011;14852;51.910;8.878;2022-07-01T00:04:44;2.50;;;2.30;;
26822;SDS011;14852;51.910;8.878;2022-07-01T00:07:28;3.80;;;2.50;;
26822;SDS011;14852;51.910;8.878;2022-07-01T00:09:54;3.00;;;2.50;;
26822;SDS011;14852;51.910;8.878;2022-07-01T00:12:20;3.58;;;2.45;;
26822;SDS011;14852;51.910;8.878;2022-07-01T00:14:46;4.72;;;3.22;;
26822;SDS011;14852;51.910;8.878;2022-07-01T00:17:12;4.38;;;3.47;;
26822;SDS011;14852;51.910;8.878;2022-07-01T00:19:37;3.22;;;2.78;;
26822;SDS011;14852;51.910;8.878;2022-07-01T00:22:03;2.45;;;2.25;;
26822;SDS011;14852;51.910;8.878;2022-07-01T00:24:29;3.22;;;2.92;;
26822;SDS011;14852;51.910;8.878;2022-07-01T00:26:55;6.50;;;3.28;;
26822;SDS011;14852;51.910;8.878;2022-07-01T00:29:20;4.20;;;2.97;;
26822;SDS011;14852;51.910;8.878;2022-07-01T00:31:46;4.10;;;2.75;;
26822;SDS011;14852;51.910;8.878;2022-07-01T00:34:12;4.65;;;2.67;;
26822;SDS011;14852;51.910;8.878;2022-07-01T00:36:37;4.38;;;2.88;;
26822;SDS011;14852;51.910;8.878;2022-07-01T00:39:03;3.30;;;2.75;;
26822;SDS011;14852;51.910;8.878;2022-07-01T00:41:29;3.15;;;2.33;;
26822;SDS011;14852;51.910;8.878;2022-07-01T00:43:55;3.53;;;2.70;;
26822;SDS011;14852;51.910;8.878;2022-07-01T00:46:22;3.50;;;2.60;;
26822;SDS011;14852;51.910;8.878;2022-07-01T00:48:50;3.40;;;2.78;;
26822;SDS011;14852;51.910;8.878;2022-07-01T00:51:21;3.22;;;2.35;;
26822;SDS011;14852;51.910;8.878;2022-07-01T00:53:47;3.53;;;2.90;;
26822;SDS011;14852;51.910;8.878;2022-07-01T00:56:13;4.25;;;3.00;;
26822;SDS011;14852;51.910;8.878;2022-07-01T00:58:39;3.63;;;2.72;;
26822;SDS011;14852;51.910;8.878;2022-07-01T01:01:05;10.35;;;3.53;;
26822;SDS011;14852;51.910;8.878;2022-07-01T01:03:31;2.85;;;2.55;;
26822;SDS011;14852;51.910;8.878;2022-07-01T01:05:57;3.35;;;2.13;;
26822;SDS011;14852;51.910;8.878;2022-07-01T01:08:23;2.17;;;1.98;;
26822;SDS011;14852;51.910;8.878;2022-07-01T01:10:50;4.75;;;2.33;;
26822;SDS011;14852;51.910;8.878;2022-07-01T01:13:18;4.28;;;2.83;;
26822;SDS011;14852;51.910;8.878;2022-07-01T01:15:44;3.85;;;2.83;;
26822;SDS011;14852;51.910;8.878;2022-07-01T01:18:09;4.00;;;3.50;;
26822;SDS011;14852;51.910;8.878;2022-07-01T01:20:35;4.57;;;2.58;;
26822;SDS011;14852;51.910;8.878;2022-07-01T01:23:02;3.47;;;2.92;;
26822;SDS011;14852;51.910;8.878;2022-07-01T01:25:32;3.63;;;2.85;;
26822;SDS011;14852;51.910;8.878;2022-07-01T01:27:58;3.88;;;3.25;;
26822;SDS011;14852;51.910;8.878;2022-07-01T01:30:26;3.72;;;2.67;;
26822;SDS011;14852;51.910;8.878;2022-07-01T01:32:52;4.20;;;3.13;;
26822;SDS011;14852;51.910;8.878;2022-07-01T01:35:18;5.88;;;3.80;;
26822;SDS011;14852;51.910;8.878;2022-07-01T01:37:45;5.45;;;4.38;;
26822;SDS011;14852;51.910;8.878;2022-07-01T01:40:11;4.43;;;2.80;;
26822;SDS011;14852;51.910;8.878;2022-07-01T01:42:39;4.35;;;3.10;;
26822;SDS011;14852;51.910;8.878;2022-07-01T01:45:06;3.63;;;3.10;;
26822;SDS011;14852;51.910;8.878;2022-07-01T01:47:33;4.78;;;3.78;;
26822;SDS011;14852;51.910;8.878;2022-07-01T01:49:58;4.45;;;2.95;;
26822;SDS011;14852;51.910;8.878;2022-07-01T01:52:24;3.63;;;3.15;;
26822;SDS011;14852;51.910;8.878;2022-07-01T01:54:50;4.88;;;3.67;;
26822;SDS011;14852;51.910;8.878;2022-07-01T01:57:16;5.03;;;3.50;;
26822;SDS011;14852;51.910;8.878;2022-07-01T01:59:42;5.22;;;3.83;;
26822;SDS011;14852;51.910;8.878;2022-07-01T02:02:07;4.10;;;3.30;;
26822;SDS011;14852;51.910;8.878;2022-07-01T02:04:33;3.10;;;2.80;;
26822;SDS011;14852;51.910;8.878;2022-07-01T02:07:00;3.70;;;2.70;;
26822;SDS011;14852;51.910;8.878;2022-07-01T02:09:25;5.20;;;3.17;;
26822;SDS011;14852;51.910;8.878;2022-07-01T02:11:53;4.78;;;2.83;;
26822;SDS011;14852;51.910;8.878;2022-07-01T02:14:19;2.90;;;2.60;;
26822;SDS011;14852;51.910;8.878;2022-07-01T02:16:45;4.30;;;2.63;;
26822;SDS011;14852;51.910;8.878;2022-07-01T02:19:11;3.35;;;2.45;;
26822;SDS011;14852;51.910;8.878;2022-07-01T02:21:36;2.90;;;2.50;;
26822;SDS011;14852;51.910;8.878;2022-07-01T02:24:02;5.15;;;2.83;;
26822;SDS011;14852;51.910;8.878;2022-07-01T02:26:28;3.72;;;2.50;;
26822;SDS011;14852;51.910;8.878;2022-07-01T02:28:54;2.70;;;2.50;;
26822;SDS011;14852;51.910;8.878;2022-07-01T02:31:19;3.60;;;2.50;;
26822;SDS011;14852;51.910;8.878;2022-07-01T02:33:45;3.08;;;2.60;;
26822;SDS011;14852;51.910;8.878;2022-07-01T02:36:11;3.00;;;2.70;;
26822;SDS011;14852;51.910;8.878;2022-07-01T02:38:37;3.22;;;2.17;;
26822;SDS011;14852;51.910;8.878;2022-07-01T02:41:03;4.32;;;2.45;;
26822;SDS011;14852;51.910;8.878;2022-07-01T02:43:29;3.40;;;2.53;;
26822;SDS011;14852;51.910;8.878;2022-07-01T02:45:56;2.00;;;1.73;;
26822;SDS011;14852;51.910;8.878;2022-07-01T02:48:22;2.15;;;1.80;;
26822;SDS011;14852;51.910;8.878;2022-07-01T02:50:48;2.50;;;2.30;;
26822;SDS011;14852;51.910;8.878;2022-07-01T02:53:14;3.25;;;2.22;;
26822;SDS011;14852;51.910;8.878;2022-07-01T02:55:40;2.20;;;2.00;;
26822;SDS011;14852;51.910;8.878;2022-07-01T02:58:06;2.75;;;2.42;;
26822;SDS011;14852;51.910;8.878;2022-07-01T03:00:32;2.85;;;2.30;;
26822;SDS011;14852;51.910;8.878;2022-07-01T03:02:58;3.92;;;2.67;;
26822;SDS011;14852;51.910;8.878;2022-07-01T03:05:23;3.63;;;3.13;;
26822;SDS011;14852;51.910;8.878;2022-07-01T03:07:49;3.10;;;2.63;;
26822;SDS011;14852;51.910;8.878;2022-07-01T03:10:15;3.78;;;2.70;;
26822;SDS011;14852;51.910;8.878;2022-07-01T03:12:41;4.32;;;3.35;;
26822;SDS011;14852;51.910;8.878;2022-07-01T03:15:14;3.75;;;3.40;;
26822;SDS011;14852;51.910;8.878;2022-07-01T03:20:09;4.70;;;4.10;;
26822;SDS011;14852;51.910;8.878;2022-07-01T03:22:38;4.32;;;3.50;;
26822;SDS011;14852;51.910;8.878;2022-07-01T03:25:05;5.35;;;3.40;;
26822;SDS011;14852;51.910;8.878;2022-07-01T03:27:32;4.50;;;3.80;;
26822;SDS011;14852;51.910;8.878;2022-07-01T03:29:58;4.18;;;3.78;;
26822;SDS011;14852;51.910;8.878;2022-07-01T03:32:24;5.03;;;4.60;;
26822;SDS011;14852;51.910;8.878;2022-07-01T03:34:51;4.78;;;4.28;;
26822;SDS011;14852;51.910;8.878;2022-07-01T03:37:18;4.70;;;4.30;;
26822;SDS011;14852;51.910;8.878;2022-07-01T03:39:46;5.38;;;4.88;;
26822;SDS011;14852;51.910;8.878;2022-07-01T03:42:12;6.30;;;5.70;;
26822;SDS011;14852;51.910;8.878;2022-07-01T03:44:38;6.22;;;5.63;;
26822;SDS011;14852;51.910;8.878;2022-07-01T03:47:04;6.97;;;6.38;;
26822;SDS011;14852;51.910;8.878;2022-07-01T03:49:31;8.40;;;7.60;;
26822;SDS011;14852;51.910;8.878;2022-07-01T03:52:01;7.30;;;6.57;;
26822;SDS011;14852;51.910;8.878;2022-07-01T03:54:28;9.25;;;8.35;;
26822;SDS011;14852;51.910;8.878;2022-07-01T03:56:58;8.50;;;7.70;;
26822;SDS011;14852;51.910;8.878;2022-07-01T03:59:30;8.48;;;7.72;;
26822;SDS011;14852;51.910;8.878;2022-07-01T04:01:58;8.95;;;8.05;;
26822;SDS011;14852;51.910;8.878;2022-07-01T04:04:25;8.05;;;7.35;;
26822;SDS011;14852;51.910;8.878;2022-07-01T04:06:52;8.55;;;7.70;;
26822;SDS011;14852;51.910;8.878;2022-07-01T04:09:20;9.32;;;8.43;;
26822;SDS011;14852;51.910;8.878;2022-07-01T04:11:47;9.85;;;8.98;;
26822;SDS011;14852;51.910;8.878;2022-07-01T04:14:14;10.07;;;8.90;;
26822;SDS011;14852;51.910;8.878;2022-07-01T04:16:41;9.57;;;8.70;;
26822;SDS011;14852;51.910;8.878;2022-07-01T04:19:07;10.68;;;9.73;;
26822;SDS011;14852;51.910;8.878;2022-07-01T04:21:37;9.15;;;8.30;;
26822;SDS011;14852;51.910;8.878;2022-07-01T04:24:22;9.68;;;8.77;;
26822;SDS011;14852;51.910;8.878;2022-07-01T04:26:49;10.63;;;9.60;;
26822;SDS011;14852;51.910;8.878;2022-07-01T04:29:15;10.40;;;9.50;;
26822;SDS011;14852;51.910;8.878;2022-07-01T04:31:42;10.30;;;9.30;;
26822;SDS011;14852;51.910;8.878;2022-07-01T04:34:08;10.32;;;9.32;;
26822;SDS011;14852;51.910;8.878;2022-07-01T04:36:34;14.45;;;12.02;;
26822;SDS011;14852;51.910;8.878;2022-07-01T04:39:01;11.02;;;9.93;;
26822;SDS011;14852;51.910;8.878;2022-07-01T04:41:28;10.57;;;9.57;;
26822;SDS011;14852;51.910;8.878;2022-07-01T04:44:13;10.00;;;9.02;;
26822;SDS011;14852;51.910;8.878;2022-07-01T04:46:39;11.68;;;10.23;;
26822;SDS011;14852;51.910;8.878;2022-07-01T04:49:04;11.35;;;10.25;;
26822;SDS011;14852;51.910;8.878;2022-07-01T04:51:30;11.00;;;9.95;;
26822;SDS011;14852;51.910;8.878;2022-07-01T04:53:59;10.52;;;9.43;;
26822;SDS011;14852;51.910;8.878;2022-07-01T04:56:28;9.77;;;8.77;;
26822;SDS011;14852;51.910;8.878;2022-07-01T04:58:55;11.35;;;10.25;;
26822;SDS011;14852;51.910;8.878;2022-07-01T05:01:21;12.32;;;11.13;;
26822;SDS011;14852;51.910;8.878;2022-07-01T05:03:47;11.20;;;10.10;;
26822;SDS011;14852;51.910;8.878;2022-07-01T05:06:13;11.45;;;10.27;;
26822;SDS011;14852;51.910;8.878;2022-07-01T05:08:39;10.80;;;9.70;;
26822;SDS011;14852;51.910;8.878;2022-07-01T05:11:05;9.02;;;8.20;;
26822;SDS011;14852;51.910;8.878;2022-07-01T05:13:31;11.38;;;10.27;;
26822;SDS011;14852;51.910;8.878;2022-07-01T05:16:01;11.68;;;10.48;;
26822;SDS011;14852;51.910;8.878;2022-07-01T05:18:27;10.50;;;9.50;;
26822;SDS011;14852;51.910;8.878;2022-07-01T05:21:13;11.00;;;9.90;;
26822;SDS011;14852;51.910;8.878;2022-07-01T05:23:58;11.88;;;10.77;;
26822;SDS011;14852;51.910;8.878;2022-07-01T05:26:24;11.07;;;9.95;;
26822;SDS011;14852;51.910;8.878;2022-07-01T05:28:51;13.10;;;11.80;;
26822;SDS011;14852;51.910;8.878;2022-07-01T05:31:18;11.38;;;10.35;;
26822;SDS011;14852;51.910;8.878;2022-07-01T05:33:44;9.95;;;9.05;;
26822;SDS011;14852;51.910;8.878;2022-07-01T05:36:11;11.52;;;10.38;;
26822;SDS011;14852;51.910;8.878;2022-07-01T05:38:36;11.40;;;10.23;;
26822;SDS011;14852;51.910;8.878;2022-07-01T05:41:02;11.18;;;10.07;;
26822;SDS011;14852;51.910;8.878;2022-07-01T05:43:28;9.57;;;8.65;;
26822;SDS011;14852;51.910;8.878;2022-07-01T05:45:55;10.90;;;9.80;;
26822;SDS011;14852;51.910;8.878;2022-07-01T05:48:21;8.88;;;7.72;;
26822;SDS011;14852;51.910;8.878;2022-07-01T05:50:48;8.10;;;7.32;;
26822;SDS011;14852;51.910;8.878;2022-07-01T05:53:15;8.05;;;7.28;;
26822;SDS011;14852;51.910;8.878;2022-07-01T05:55:41;7.07;;;6.35;;
26822;SDS011;14852;51.910;8.878;2022-07-01T05:58:07;7.55;;;6.70;;
26822;SDS011;14852;51.910;8.878;2022-07-01T06:00:35;8.15;;;7.35;;
26822;SDS011;14852;51.910;8.878;2022-07-01T06:03:01;7.97;;;7.18;;
26822;SDS011;14852;51.910;8.878;2022-07-01T06:05:27;7.63;;;6.75;;
26822;SDS011;14852;51.910;8.878;2022-07-01T06:07:54;7.70;;;7.00;;
26822;SDS011;14852;51.910;8.878;2022-07-01T06:10:20;8.85;;;7.22;;
26822;SDS011;14852;51.910;8.878;2022-07-01T06:12:46;7.47;;;6.78;;
26822;SDS011;14852;51.910;8.878;2022-07-01T06:15:12;7.35;;;6.65;;
26822;SDS011;14852;51.910;8.878;2022-07-01T06:17:38;7.38;;;6.68;;
26822;SDS011;14852;51.910;8.878;2022-07-01T06:20:06;8.27;;;7.07;;
26822;SDS011;14852;51.910;8.878;2022-07-01T06:22:33;8.15;;;7.25;;
26822;SDS011;14852;51.910;8.878;2022-07-01T06:24:59;7.95;;;6.78;;
26822;SDS011;14852;51.910;8.878;2022-07-01T06:27:26;7.53;;;6.43;;
26822;SDS011;14852;51.910;8.878;2022-07-01T06:29:52;8.00;;;7.10;;
26822;SDS011;14852;51.910;8.878;2022-07-01T06:32:18;8.52;;;7.63;;
26822;SDS011;14852;51.910;8.878;2022-07-01T06:34:44;10.32;;;9.25;;
26822;SDS011;14852;51.910;8.878;2022-07-01T06:37:11;9.30;;;8.27;;
26822;SDS011;14852;51.910;8.878;2022-07-01T06:39:37;10.27;;;8.20;;
26822;SDS011;14852;51.910;8.878;2022-07-01T06:42:03;11.75;;;9.95;;
26822;SDS011;14852;51.910;8.878;2022-07-01T06:44:29;10.15;;;9.15;;
26822;SDS011;14852;51.910;8.878;2022-07-01T06:46:55;11.57;;;9.88;;
26822;SDS011;14852;51.910;8.878;2022-07-01T06:49:21;12.50;;;11.20;;
26822;SDS011;14852;51.910;8.878;2022-07-01T06:51:47;13.25;;;11.85;;
26822;SDS011;14852;51.910;8.878;2022-07-01T06:54:12;13.63;;;12.23;;
26822;SDS011;14852;51.910;8.878;2022-07-01T06:56:38;13.95;;;12.43;;
26822;SDS011;14852;51.910;8.878;2022-07-01T06:59:04;14.63;;;12.57;;
26822;SDS011;14852;51.910;8.878;2022-07-01T07:01:30;13.82;;;12.43;;
26822;SDS011;14852;51.910;8.878;2022-07-01T07:03:56;14.00;;;12.65;;
26822;SDS011;14852;51.910;8.878;2022-07-01T07:06:21;14.48;;;12.82;;
26822;SDS011;14852;51.910;8.878;2022-07-01T07:08:47;14.52;;;13.02;;
26822;SDS011;14852;51.910;8.878;2022-07-01T07:11:13;15.63;;;13.45;;
26822;SDS011;14852;51.910;8.878;2022-07-01T07:13:40;17.20;;;15.43;;
26822;SDS011;14852;51.910;8.878;2022-07-01T07:16:07;16.55;;;14.85;;
26822;SDS011;14852;51.910;8.878;2022-07-01T07:18:33;16.65;;;15.02;;
26822;SDS011;14852;51.910;8.878;2022-07-01T07:20:59;14.13;;;12.55;;
26822;SDS011;14852;51.910;8.878;2022-07-01T07:23:25;15.40;;;13.80;;
26822;SDS011;14852;51.910;8.878;2022-07-01T07:25:50;14.98;;;13.40;;
26822;SDS011;14852;51.910;8.878;2022-07-01T07:28:16;16.25;;;14.55;;
26822;SDS011;14852;51.910;8.878;2022-07-01T07:30:42;15.90;;;14.13;;
26822;SDS011;14852;51.910;8.878;2022-07-01T07:33:08;16.25;;;14.15;;
26822;SDS011;14852;51.910;8.878;2022-07-01T07:35:34;16.33;;;14.63;;
26822;SDS011;14852;51.910;8.878;2022-07-01T07:38:00;15.25;;;13.68;;
26822;SDS011;14852;51.910;8.878;2022-07-01T07:40:25;13.85;;;12.48;;
26822;SDS011;14852;51.910;8.878;2022-07-01T07:42:51;14.98;;;13.48;;
26822;SDS011;14852;51.910;8.878;2022-07-01T07:45:17;15.75;;;14.10;;
26822;SDS011;14852;51.910;8.878;2022-07-01T07:47:43;15.60;;;14.00;;
26822;SDS011;14852;51.910;8.878;2022-07-01T07:50:11;15.95;;;14.35;;
26822;SDS011;14852;51.910;8.878;2022-07-01T07:52:38;16.95;;;15.35;;
26822;SDS011;14852;51.910;8.878;2022-07-01T07:55:05;16.13;;;14.65;;
26822;SDS011;14852;51.910;8.878;2022-07-01T07:57:32;17.52;;;15.27;;
26822;SDS011;14852;51.910;8.878;2022-07-01T08:00:00;16.80;;;15.30;;
26822;SDS011;14852;51.910;8.878;2022-07-01T08:02:36;14.88;;;13.38;;
26822;SDS011;14852;51.910;8.878;2022-07-01T08:05:03;14.95;;;13.52;;
26822;SDS011;14852;51.910;8.878;2022-07-01T08:07:30;13.63;;;12.32;;
26822;SDS011;14852;51.910;8.878;2022-07-01T08:10:02;13.65;;;12.25;;
26822;SDS011;14852;51.910;8.878;2022-07-01T08:12:33;13.50;;;12.20;;
26822;SDS011;14852;51.910;8.878;2022-07-01T08:14:59;13.20;;;11.77;;
26822;SDS011;14852;51.910;8.878;2022-07-01T08:17:25;15.05;;;13.60;;
26822;SDS011;14852;51.910;8.878;2022-07-01T08:19:51;14.75;;;13.30;;
26822;SDS011;14852;51.910;8.878;2022-07-01T08:22:17;15.85;;;14.23;;
26822;SDS011;14852;51.910;8.878;2022-07-01T08:24:44;15.75;;;14.15;;
26822;SDS011;14852;51.910;8.878;2022-07-01T08:27:10;15.77;;;14.27;;
26822;SDS011;14852;51.910;8.878;2022-07-01T08:29:37;14.85;;;13.40;;
26822;SDS011;14852;51.910;8.878;2022-07-01T08:32:04;14.13;;;12.75;;
26822;SDS011;14852;51.910;8.878;2022-07-01T08:34:31;15.18;;;13.77;;
26822;SDS011;14852;51.910;8.878;2022-07-01T08:36:57;17.35;;;12.85;;
26822;SDS011;14852;51.910;8.878;2022-07-01T08:39:22;15.23;;;13.60;;
26822;SDS011;14852;51.910;8.878;2022-07-01T08:41:48;14.10;;;12.80;;
26822;SDS011;14852;51.910;8.878;2022-07-01T08:44:14;13.57;;;12.30;;
26822;SDS011;14852;51.910;8.878;2022-07-01T08:46:40;14.57;;;13.15;;
26822;SDS011;14852;51.910;8.878;2022-07-01T08:49:06;14.60;;;13.20;;
26822;SDS011;14852;51.910;8.878;2022-07-01T08:51:32;13.65;;;12.40;;
26822;SDS011;14852;51.910;8.878;2022-07-01T08:53:58;12.25;;;11.05;;
26822;SDS011;14852;51.910;8.878;2022-07-01T08:56:23;13.63;;;12.13;;
26822;SDS011;14852;51.910;8.878;2022-07-01T08:59:24;12.80;;;11.50;;
26822;SDS011;14852;51.910;8.878;2022-07-01T09:01:55;13.98;;;12.57;;
26822;SDS011;14852;51.910;8.878;2022-07-01T09:04:23;13.98;;;12.10;;
26822;SDS011;14852;51.910;8.878;2022-07-01T09:06:50;13.05;;;11.77;;
26822;SDS011;14852;51.910;8.878;2022-07-01T09:09:17;14.48;;;13.18;;
26822;SDS011;14852;51.910;8.878;2022-07-01T09:11:47;13.75;;;12.55;;
26822;SDS011;14852;51.910;8.878;2022-07-01T09:14:19;13.50;;;12.20;;
26822;SDS011;14852;51.910;8.878;2022-07-01T09:16:51;13.80;;;12.38;;
26822;SDS011;14852;51.910;8.878;2022-07-01T09:19:23;11.93;;;10.83;;
26822;SDS011;14852;51.910;8.878;2022-07-01T09:21:54;13.52;;;12.18;;
26822;SDS011;14852;51.910;8.878;2022-07-01T09:24:38;14.57;;;13.27;;
26822;SDS011;14852;51.910;8.878;2022-07-01T09:27:08;12.15;;;11.02;;
26822;SDS011;14852;51.910;8.878;2022-07-01T09:29:39;14.18;;;12.88;;
26822;SDS011;14852;51.910;8.878;2022-07-01T09:32:08;15.32;;;13.95;;
26822;SDS011;14852;51.910;8.878;2022-07-01T09:34:39;13.18;;;12.07;;
26822;SDS011;14852;51.910;8.878;2022-07-01T09:37:14;14.60;;;13.18;;
26822;SDS011;14852;51.910;8.878;2022-07-01T09:39:52;14.00;;;12.68;;
26822;SDS011;14852;51.910;8.878;2022-07-01T09:42:21;13.98;;;12.10;;
26822;SDS011;14852;51.910;8.878;2022-07-01T09:47:44;12.35;;;11.32;;
26822;SDS011;14852;51.910;8.878;2022-07-01T09:50:13;13.48;;;12.20;;
26822;SDS011;14852;51.910;8.878;2022-07-01T09:52:38;11.25;;;10.20;;
26822;SDS011;14852;51.910;8.878;2022-07-01T09:55:05;11.10;;;10.10;;
26822;SDS011;14852;51.910;8.878;2022-07-01T09:57:32;12.35;;;11.35;;
26822;SDS011;14852;51.910;8.878;2022-07-01T09:59:59;10.73;;;9.82;;
26822;SDS011;14852;51.910;8.878;2022-07-01T10:02:25;10.88;;;9.80;;
26822;SDS011;14852;51.910;8.878;2022-07-01T10:04:57;12.25;;;11.07;;
26822;SDS011;14852;51.910;8.878;2022-07-01T10:07:31;11.10;;;9.93;;
26822;SDS011;14852;51.910;8.878;2022-07-01T10:13:31;11.02;;;10.15;;
26822;SDS011;14852;51.910;8.878;2022-07-01T10:16:00;9.73;;;8.82;;
26822;SDS011;14852;51.910;8.878;2022-07-01T10:18:29;10.27;;;9.18;;
26822;SDS011;14852;51.910;8.878;2022-07-01T10:20:57;10.70;;;9.45;;
26822;SDS011;14852;51.910;8.878;2022-07-01T10:23:27;8.98;;;8.27;;
26822;SDS011;14852;51.910;8.878;2022-07-01T10:26:03;10.95;;;8.80;;
26822;SDS011;14852;51.910;8.878;2022-07-01T10:28:40;9.63;;;8.77;;
26822;SDS011;14852;51.910;8.878;2022-07-01T10:31:12;10.52;;;9.63;;
26822;SDS011;14852;51.910;8.878;2022-07-01T10:36:34;9.10;;;8.40;;
26822;SDS011;14852;51.910;8.878;2022-07-01T10:41:34;10.20;;;9.40;;
26822;SDS011;14852;51.910;8.878;2022-07-01T10:46:43;9.55;;;8.77;;
26822;SDS011;14852;51.910;8.878;2022-07-01T10:52:05;8.98;;;8.18;;
26822;SDS011;14852;51.910;8.878;2022-07-01T10:59:45;7.28;;;6.68;;
26822;SDS011;14852;51.910;8.878;2022-07-01T11:02:41;7.82;;;7.18;;
26822;SDS011;14852;51.910;8.878;2022-07-01T11:05:08;7.78;;;7.15;;
26822;SDS011;14852;51.910;8.878;2022-07-01T11:07:39;7.53;;;6.82;;
26822;SDS011;14852;51.910;8.878;2022-07-01T11:10:10;7.40;;;6.80;;
26822;SDS011;14852;51.910;8.878;2022-07-01T11:12:40;7.07;;;6.38;;
26822;SDS011;14852;51.910;8.878;2022-07-01T11:15:09;6.18;;;5.72;;
26822;SDS011;14852;51.910;8.878;2022-07-01T11:17:36;8.52;;;7.78;;
26822;SDS011;14852;51.910;8.878;2022-07-01T11:20:14;6.72;;;6.13;;
26822;SDS011;14852;51.910;8.878;2022-07-01T11:22:40;7.30;;;6.30;;
26822;SDS011;14852;51.910;8.878;2022-07-01T11:25:07;7.53;;;6.22;;
26822;SDS011;14852;51.910;8.878;2022-07-01T11:27:37;6.78;;;6.07;;
26822;SDS011;14852;51.910;8.878;2022-07-01T11:30:07;6.40;;;5.90;;
26822;SDS011;14852;51.910;8.878;2022-07-01T11:32:43;7.03;;;5.75;;
26822;SDS011;14852;51.910;8.878;2022-07-01T11:35:16;6.55;;;5.95;;
26822;SDS011;14852;51.910;8.878;2022-07-01T11:38:16;7.07;;;6.22;;
26822;SDS011;14852;51.910;8.878;2022-07-01T11:41:05;7.82;;;6.30;;
26822;SDS011;14852;51.910;8.878;2022-07-01T11:43:45;6.38;;;5.85;;
26822;SDS011;14852;51.910;8.878;2022-07-01T11:46:11;6.35;;;5.75;;
26822;SDS011;14852;51.910;8.878;2022-07-01T11:48:38;6.38;;;5.78;;
26822;SDS011;14852;51.910;8.878;2022-07-01T11:51:15;5.82;;;5.25;;
26822;SDS011;14852;51.910;8.878;2022-07-01T11:56:15;5.72;;;5.18;;
26822;SDS011;14852;51.910;8.878;2022-07-01T11:58:52;8.43;;;5.18;;
26822;SDS011;14852;51.910;8.878;2022-07-01T12:01:25;5.00;;;4.60;;
26822;SDS011;14852;51.910;8.878;2022-07-01T12:03:55;5.03;;;4.53;;
26822;SDS011;14852;51.910;8.878;2022-07-01T12:06:24;4.22;;;3.83;;
26822;SDS011;14852;51.910;8.878;2022-07-01T12:08:51;5.43;;;4.80;;
26822;SDS011;14852;51.910;8.878;2022-07-01T12:11:19;8.40;;;4.95;;
26822;SDS011;14852;51.910;8.878;2022-07-01T12:13:47;5.85;;;4.72;;
26822;SDS011;14852;51.910;8.878;2022-07-01T12:16:13;4.88;;;4.20;;
26822;SDS011;14852;51.910;8.878;2022-07-01T12:18:59;5.28;;;4.50;;
26822;SDS011;14852;51.910;8.878;2022-07-01T12:21:27;6.03;;;4.25;;
26822;SDS011;14852;51.910;8.878;2022-07-01T12:24:11;6.40;;;4.40;;
26822;SDS011;14852;51.910;8.878;2022-07-01T12:29:24;4.85;;;4.45;;
26822;SDS011;14852;51.910;8.878;2022-07-01T12:32:14;4.75;;;4.32;;
26822;SDS011;14852;51.910;8.878;2022-07-01T12:37:26;5.82;;;4.47;;
26822;SDS011;14852;51.910;8.878;2022-07-01T12:39:59;5.80;;;5.30;;
26822;SDS011;14852;51.910;8.878;2022-07-01T12:42:38;7.78;;;4.63;;
26822;SDS011;14852;51.910;8.878;2022-07-01T12:45:12;5.65;;;5.15;;
26822;SDS011;14852;51.910;8.878;2022-07-01T12:47:51;5.20;;;4.80;;
26822;SDS011;14852;51.910;8.878;2022-07-01T12:50:27;5.45;;;5.05;;
26822;SDS011;14852;51.910;8.878;2022-07-01T12:53:04;5.53;;;5.03;;
26822;SDS011;14852;51.910;8.878;2022-07-01T12:58:02;6.13;;;5.18;;
26822;SDS011;14852;51.910;8.878;2022-07-01T13:00:30;6.53;;;4.30;;
26822;SDS011;14852;51.910;8.878;2022-07-01T13:02:58;6.00;;;5.35;;
26822;SDS011;14852;51.910;8.878;2022-07-01T13:05:25;5.22;;;4.72;;
26822;SDS011;14852;51.910;8.878;2022-07-01T13:07:53;5.18;;;4.68;;
26822;SDS011;14852;51.910;8.878;2022-07-01T13:10:19;6.60;;;4.90;;
26822;SDS011;14852;51.910;8.878;2022-07-01T13:12:45;6.47;;;5.03;;
26822;SDS011;14852;51.910;8.878;2022-07-01T13:15:12;4.53;;;4.10;;
26822;SDS011;14852;51.910;8.878;2022-07-01T13:17:39;4.80;;;4.40;;
26822;SDS011;14852;51.910;8.878;2022-07-01T13:20:05;5.30;;;4.90;;
26822;SDS011;14852;51.910;8.878;2022-07-01T13:22:33;5.25;;;4.57;;
26822;SDS011;14852;51.910;8.878;2022-07-01T13:24:59;4.88;;;4.47;;
26822;SDS011;14852;51.910;8.878;2022-07-01T13:27:26;5.95;;;3.72;;
26822;SDS011;14852;51.910;8.878;2022-07-01T13:29:52;5.47;;;4.07;;
26822;SDS011;14852;51.910;8.878;2022-07-01T13:32:18;4.60;;;4.05;;
26822;SDS011;14852;51.910;8.878;2022-07-01T13:34:44;5.28;;;4.57;;
26822;SDS011;14852;51.910;8.878;2022-07-01T13:37:10;5.75;;;4.20;;
26822;SDS011;14852;51.910;8.878;2022-07-01T13:39:36;4.57;;;3.95;;
26822;SDS011;14852;51.910;8.878;2022-07-01T13:42:01;5.40;;;5.00;;
26822;SDS011;14852;51.910;8.878;2022-07-01T13:44:27;5.03;;;4.55;;
26822;SDS011;14852;51.910;8.878;2022-07-01T13:46:53;7.05;;;4.55;;
26822;SDS011;14852;51.910;8.878;2022-07-01T13:49:19;5.00;;;4.50;;
26822;SDS011;14852;51.910;8.878;2022-07-01T13:51:45;6.68;;;4.43;;
26822;SDS011;14852;51.910;8.878;2022-07-01T13:54:10;4.85;;;3.92;;
26822;SDS011;14852;51.910;8.878;2022-07-01T13:56:36;4.88;;;4.22;;
26822;SDS011;14852;51.910;8.878;2022-07-01T13:59:02;6.20;;;4.05;;
26822;SDS011;14852;51.910;8.878;2022-07-01T14:01:29;4.57;;;4.18;;
26822;SDS011;14852;51.910;8.878;2022-07-01T14:03:56;5.07;;;4.57;;
26822;SDS011;14852;51.910;8.878;2022-07-01T14:06:22;5.57;;;4.65;;
26822;SDS011;14852;51.910;8.878;2022-07-01T14:08:48;4.85;;;4.35;;
26822;SDS011;14852;51.910;8.878;2022-07-01T14:11:14;4.45;;;4.05;;
26822;SDS011;14852;51.910;8.878;2022-07-01T14:13:39;5.88;;;5.28;;
26822;SDS011;14852;51.910;8.878;2022-07-01T14:16:06;6.60;;;4.53;;
26822;SDS011;14852;51.910;8.878;2022-07-01T14:18:32;5.22;;;4.72;;
26822;SDS011;14852;51.910;8.878;2022-07-01T14:21:00;4.80;;;4.13;;
26822;SDS011;14852;51.910;8.878;2022-07-01T14:23:26;4.53;;;4.13;;
26822;SDS011;14852;51.910;8.878;2022-07-01T14:25:52;4.85;;;3.92;;
26822;SDS011;14852;51.910;8.878;2022-07-01T14:28:18;4.15;;;3.70;;
26822;SDS011;14852;51.910;8.878;2022-07-01T14:30:44;3.83;;;3.45;;
26822;SDS011;14852;51.910;8.878;2022-07-01T14:33:10;3.40;;;3.08;;
26822;SDS011;14852;51.910;8.878;2022-07-01T14:35:36;4.03;;;3.03;;
26822;SDS011;14852;51.910;8.878;2022-07-01T14:38:02;3.55;;;2.88;;
26822;SDS011;14852;51.910;8.878;2022-07-01T14:40:30;3.33;;;3.03;;
26822;SDS011;14852;51.910;8.878;2022-07-01T14:42:57;3.70;;;2.97;;
26822;SDS011;14852;51.910;8.878;2022-07-01T14:45:23;3.92;;;3.63;;
26822;SDS011;14852;51.910;8.878;2022-07-01T14:47:49;4.97;;;2.60;;
26822;SDS011;14852;51.910;8.878;2022-07-01T14:50:14;4.65;;;3.10;;
26822;SDS011;14852;51.910;8.878;2022-07-01T14:52:40;4.25;;;3.38;;
26822;SDS011;14852;51.910;8.878;2022-07-01T14:55:06;3.67;;;3.28;;
26822;SDS011;14852;51.910;8.878;2022-07-01T14:57:32;3.78;;;3.25;;
26822;SDS011;14852;51.910;8.878;2022-07-01T14:59:58;3.78;;;2.97;;
26822;SDS011;14852;51.910;8.878;2022-07-01T15:02:24;5.40;;;3.20;;
26822;SDS011;14852;51.910;8.878;2022-07-01T15:04:52;2.70;;;2.45;;
26822;SDS011;14852;51.910;8.878;2022-07-01T15:07:17;5.03;;;2.80;;
26822;SDS011;14852;51.910;8.878;2022-07-01T15:09:43;3.22;;;2.47;;
26822;SDS011;14852;51.910;8.878;2022-07-01T15:12:09;4.72;;;2.53;;
26822;SDS011;14852;51.910;8.878;2022-07-01T15:14:35;4.25;;;3.08;;
26822;SDS011;14852;51.910;8.878;2022-07-01T15:17:00;3.33;;;3.00;;
26822;SDS011;14852;51.910;8.878;2022-07-01T15:19:27;3.80;;;2.60;;
26822;SDS011;14852;51.910;8.878;2022-07-01T15:21:53;4.53;;;2.88;;